METAR Data
IDs: Format: Raw Decoded Include TAF

Data at: 0942 UTC 21 Oct 2019

METAR for:KHCR (Heber City Muni, UT, US)
Text:KHCR 210910Z AUTO 13004KT 10SM BKN060 BKN075 BKN080 00/M03 A3009 RMK AO2
Temperature: 0.0°C ( 32°F)
Dewpoint: -3.0°C ( 27°F) [RH = 80%]
Pressure (altimeter):30.09 inches Hg (1019.0 mb)
Winds:from the SE (130 degrees) at 5 MPH (4 knots; 2.1 m/s)
Visibility:10 or more sm (16+ km)
Ceiling:6000 feet AGL
Clouds: broken clouds at 6000 feet AGL, broken clouds at 7500 feet AGL, broken clouds at 8000 feet AGL
QC Flag:automated observation with no human augmentation